createdAt,value
2023-03-12T00:01:44.878Z,6.90
2023-03-12T00:12:08.792Z,9.53
2023-03-12T00:22:42.882Z,7.73
2023-03-12T00:28:02.369Z,7.00
2023-03-12T00:33:32.441Z,8.87
2023-03-12T00:38:41.685Z,8.27
2023-03-12T00:43:48.929Z,8.57
2023-03-12T00:48:57.390Z,9.73
2023-03-12T00:59:35.245Z,7.43
2023-03-12T01:04:48.643Z,8.00
2023-03-12T01:09:58.779Z,7.50
2023-03-12T01:15:21.348Z,6.93
2023-03-12T01:25:51.592Z,6.87
2023-03-12T01:31:42.561Z,6.93
2023-03-12T01:36:50.974Z,6.80
2023-03-12T01:41:56.864Z,10.30
2023-03-12T01:47:01.755Z,9.37
2023-03-12T01:52:08.696Z,7.93
2023-03-12T01:57:27.788Z,7.33
2023-03-12T02:02:43.385Z,6.83
2023-03-12T02:13:09.446Z,7.87
2023-03-12T02:18:36.432Z,8.50
2023-03-12T02:24:08.270Z,5.97
2023-03-12T02:29:19.416Z,6.20
2023-03-12T02:34:30.707Z,8.27
2023-03-12T02:39:34.191Z,6.80
2023-03-12T02:44:39.579Z,10.47
2023-03-12T02:49:44.073Z,8.40
2023-03-12T02:54:50.700Z,9.57
2023-03-12T03:00:06.372Z,10.27
2023-03-12T03:05:21.802Z,11.07
2023-03-12T03:10:29.121Z,9.53
2023-03-12T03:15:31.829Z,7.83
2023-03-12T03:21:20.703Z,9.93
2023-03-12T03:26:34.534Z,15.70
2023-03-12T03:37:07.785Z,8.37
2023-03-12T03:42:32.407Z,7.23
2023-03-12T03:47:38.227Z,7.27
2023-03-12T03:52:46.036Z,7.70
2023-03-12T03:57:58.678Z,6.93
2023-03-12T04:09:25.905Z,8.00
2023-03-12T04:14:47.232Z,7.93
2023-03-12T04:19:52.538Z,8.37
2023-03-12T04:24:57.122Z,6.73
2023-03-12T04:30:05.692Z,9.47
2023-03-12T04:35:12.794Z,6.83
2023-03-12T04:40:26.041Z,7.13
2023-03-12T04:45:39.141Z,9.47
2023-03-12T04:50:46.891Z,7.37
2023-03-12T04:56:03.978Z,7.37
2023-03-12T05:01:13.889Z,10.10
2023-03-12T05:06:42.510Z,6.40
2023-03-12T05:11:45.938Z,7.93
2023-03-12T05:17:15.749Z,5.20
2023-03-12T05:22:34.234Z,10.40
2023-03-12T05:27:42.739Z,6.87
2023-03-12T05:33:01.809Z,9.73
2023-03-12T05:38:11.821Z,5.37
2023-03-12T05:43:16.137Z,7.20
2023-03-12T05:48:26.573Z,7.10
2023-03-12T05:53:28.533Z,13.27
2023-03-12T05:58:40.914Z,7.50
2023-03-12T06:03:57.101Z,6.20
2023-03-12T06:09:04.840Z,5.70
2023-03-12T06:19:35.605Z,3.80
2023-03-12T06:24:52.038Z,5.23
2023-03-12T06:29:59.595Z,6.27
2023-03-12T06:35:24.944Z,4.87
2023-03-12T06:40:30.626Z,4.13
2023-03-12T06:45:46.669Z,8.43
2023-03-12T06:50:54.005Z,3.40
2023-03-12T06:56:00.568Z,3.47
2023-03-12T07:06:21.651Z,3.17
2023-03-12T07:11:35.558Z,9.37
2023-03-12T07:16:43.758Z,8.50
2023-03-12T07:21:53.129Z,6.73
2023-03-12T07:26:59.933Z,6.07
2023-03-12T07:32:13.034Z,4.00
2023-03-12T07:37:25.605Z,3.87
2023-03-12T07:42:38.154Z,5.47
2023-03-12T07:47:42.618Z,6.37
2023-03-12T07:52:48.111Z,5.97
2023-03-12T07:58:18.217Z,4.47
2023-03-12T08:03:26.551Z,7.30
2023-03-12T08:08:33.496Z,4.87
2023-03-12T08:13:46.594Z,4.07
2023-03-12T08:19:14.701Z,2.60
2023-03-12T08:24:43.118Z,2.17
2023-03-12T08:29:50.053Z,3.30
2023-03-12T08:34:55.400Z,5.43
2023-03-12T08:40:22.459Z,4.63
2023-03-12T08:45:29.065Z,6.03
2023-03-12T08:50:40.602Z,3.37
2023-03-12T08:56:06.695Z,2.93
2023-03-12T09:01:17.662Z,3.37
2023-03-12T09:06:32.911Z,4.50
2023-03-12T09:11:45.739Z,7.23
2023-03-12T09:16:54.350Z,5.60
2023-03-12T09:22:05.550Z,9.17
2023-03-12T09:27:13.004Z,8.40
2023-03-12T09:32:19.567Z,6.40
2023-03-12T09:37:28.834Z,8.90
2023-03-12T09:42:58.372Z,7.80
2023-03-12T09:48:04.961Z,3.77
2023-03-12T09:53:20.909Z,4.47
2023-03-12T09:58:40.237Z,9.20
2023-03-12T10:03:50.516Z,6.03
2023-03-12T10:09:09.362Z,6.20
2023-03-12T10:15:16.709Z,5.50
2023-03-12T10:20:47.213Z,5.70
2023-03-12T10:26:09.056Z,5.07
2023-03-12T10:31:53.148Z,7.57
2023-03-12T10:37:27.556Z,10.80
2023-03-12T10:48:15.920Z,5.70
2023-03-12T11:10:41.588Z,9.80
2023-03-12T11:28:14.463Z,7.63
2023-03-12T11:33:21.279Z,12.10
2023-03-12T11:57:24.627Z,9.97
2023-03-12T12:03:38.936Z,9.37
2023-03-12T12:34:31.899Z,10.73
2023-03-12T12:52:33.154Z,16.33
2023-03-12T12:58:18.741Z,17.53
2023-03-12T13:03:41.333Z,17.17
2023-03-12T13:09:46.926Z,20.70
2023-03-12T13:15:13.557Z,21.30
2023-03-12T13:22:18.301Z,22.07
2023-03-12T13:39:56.415Z,32.63
2023-03-12T14:50:54.431Z,29.07
2023-03-12T15:15:03.585Z,27.43
2023-03-12T15:26:46.240Z,26.50
2023-03-12T15:38:12.105Z,36.53
2023-03-12T15:54:48.954Z,29.00
2023-03-12T16:00:33.599Z,26.37
2023-03-12T16:06:14.056Z,27.07
2023-03-12T16:11:31.741Z,28.17
2023-03-12T16:23:55.706Z,30.70
2023-03-12T16:28:29.460Z,27.70
2023-03-12T16:52:00.771Z,33.00
2023-03-12T16:57:35.431Z,36.43
2023-03-12T17:03:00.745Z,38.73
2023-03-12T17:08:12.036Z,35.37
2023-03-12T17:31:46.506Z,38.50
2023-03-12T17:37:07.241Z,31.87
2023-03-12T17:42:42.491Z,34.43
2023-03-12T17:54:30.919Z,30.87
2023-03-12T18:05:22.605Z,31.90
2023-03-12T18:10:30.341Z,29.00
2023-03-12T18:16:03.381Z,35.17
2023-03-12T18:21:21.969Z,33.80
2023-03-12T18:26:35.493Z,37.00
2023-03-12T18:31:49.765Z,37.80
2023-03-12T18:37:05.027Z,43.13
2023-03-12T18:42:54.692Z,37.13
2023-03-12T18:48:01.908Z,31.63
2023-03-12T18:53:09.848Z,28.43
2023-03-12T19:03:54.563Z,27.63
2023-03-12T19:20:02.621Z,21.13
2023-03-12T19:25:23.536Z,17.37
2023-03-12T19:36:31.043Z,25.97
2023-03-12T19:41:39.207Z,26.10
2023-03-12T19:47:00.864Z,20.97
2023-03-12T19:52:43.280Z,22.87
2023-03-12T19:57:58.029Z,20.50
2023-03-12T20:03:28.386Z,31.87
2023-03-12T20:08:45.920Z,23.73
2023-03-12T20:20:04.474Z,18.57
2023-03-12T20:25:16.414Z,18.97
2023-03-12T20:30:37.536Z,16.97
2023-03-12T20:35:48.649Z,22.37
2023-03-12T20:41:12.305Z,24.47
2023-03-12T20:46:55.306Z,20.37
2023-03-12T20:52:17.146Z,19.37
2023-03-12T21:09:30.390Z,19.50
2023-03-12T21:20:26.707Z,20.00
2023-03-12T21:25:49.312Z,14.50
2023-03-12T21:31:15.956Z,22.10
2023-03-12T21:42:33.358Z,17.93
2023-03-12T21:53:22.708Z,49.50
2023-03-12T21:58:36.869Z,20.77
2023-03-12T22:04:12.920Z,21.90
2023-03-12T22:09:28.568Z,18.77
2023-03-12T22:14:30.409Z,21.17
2023-03-12T22:19:53.711Z,11.07
2023-03-12T22:35:53.350Z,23.27
2023-03-12T22:41:13.210Z,19.00
2023-03-12T22:46:16.671Z,22.40
2023-03-12T22:51:50.050Z,16.77
2023-03-12T22:57:03.204Z,16.43
2023-03-12T23:08:15.229Z,20.73
2023-03-12T23:13:30.935Z,18.33
2023-03-12T23:18:48.113Z,17.63
2023-03-12T23:24:16.342Z,14.37
2023-03-12T23:29:45.889Z,15.13
2023-03-12T23:35:01.775Z,13.07
2023-03-12T23:40:14.679Z,21.83
2023-03-12T23:45:33.837Z,15.47
2023-03-12T23:50:43.171Z,17.77
2023-03-12T23:56:38.603Z,14.17
